Santa Cruz do Sul, Brazil
Current Conditions -  °F | °C
As of 1:00 PM on Saturday 20 Dec 2014 (Local Time) from SBSM Reporting Station
Scattered Clouds Scattered Clouds  
Wind Chill: 91°   Ceiling: Unl
Heat Index: 98°   Visibility: 6mi
Dew Point: 72°   Wind: 6mph
Humidity: 52%   Direction: 80°E
Pressure: 29.62"   Gusts: NA
Location:  29.71°S, 52.44°W
Report Text: SBSM 201500Z 08005KT 9999 SCT040 33/22 Q1003
Loading
Personal Weather Stations






























Interactive Weather Map New forecast layout! Learn more

10-Day Weather Forecast

Advertisements
Track Severe Weather on mobile